createdAt,value
2023-05-05T00:01:05.219Z,101583.00
2023-05-05T00:03:35.991Z,101584.40
2023-05-05T00:06:08.415Z,101584.20
2023-05-05T00:08:36.991Z,101579.80
2023-05-05T00:11:05.679Z,101582.40
2023-05-05T00:13:34.261Z,101583.80
2023-05-05T00:16:03.262Z,101585.40
2023-05-05T00:18:34.101Z,101583.00
2023-05-05T00:21:02.689Z,101577.20
2023-05-05T00:23:31.264Z,101579.40
2023-05-05T00:25:59.747Z,101583.40
2023-05-05T00:28:28.336Z,101577.80
2023-05-05T00:30:56.943Z,101573.40
2023-05-05T00:33:26.119Z,101573.60
2023-05-05T00:35:54.802Z,101575.80
2023-05-05T00:38:23.697Z,101572.20
2023-05-05T00:40:52.281Z,101573.20
2023-05-05T00:43:21.177Z,101576.40
2023-05-05T00:45:59.093Z,101577.20
2023-05-05T00:48:30.875Z,101571.80
2023-05-05T00:51:00.138Z,101571.20
2023-05-05T00:53:29.345Z,101576.20
2023-05-05T00:55:58.438Z,101573.80
2023-05-05T00:58:27.726Z,101571.20
2023-05-05T01:00:56.831Z,101572.40
2023-05-05T01:03:25.563Z,101575.20
2023-05-05T01:06:08.643Z,101578.00
2023-05-05T01:08:51.566Z,101574.20
2023-05-05T01:11:36.428Z,101568.20
2023-05-05T01:14:42.388Z,101572.60
2023-05-05T01:17:19.773Z,101575.80
2023-05-05T01:20:42.229Z,101572.00
2023-05-05T01:23:16.757Z,101566.60
2023-05-05T01:26:13.396Z,101567.80
2023-05-05T01:29:06.555Z,101566.40
2023-05-05T01:31:58.565Z,101562.20
2023-05-05T01:34:35.365Z,101558.60
2023-05-05T01:37:31.185Z,101560.20
2023-05-05T01:40:06.977Z,101559.20
2023-05-05T01:42:38.245Z,101561.00
2023-05-05T01:45:09.785Z,101563.60
2023-05-05T01:47:40.715Z,101561.00
2023-05-05T01:50:11.724Z,101556.40
2023-05-05T01:52:42.402Z,101556.80
2023-05-05T01:55:12.526Z,101548.60
2023-05-05T01:57:43.070Z,101554.80
2023-05-05T02:00:13.033Z,101553.40
2023-05-05T02:02:50.090Z,101552.40
2023-05-05T02:05:19.857Z,101552.40
2023-05-05T02:07:50.858Z,101555.00
2023-05-05T02:10:19.649Z,101558.80
2023-05-05T02:12:49.557Z,101555.00
2023-05-05T02:15:19.081Z,101553.00
2023-05-05T02:17:52.416Z,101561.20
2023-05-05T02:20:22.701Z,101560.40
2023-05-05T02:22:51.385Z,101561.80
2023-05-05T02:25:20.474Z,101566.20
2023-05-05T02:27:52.233Z,101555.80
2023-05-05T02:30:21.230Z,101558.60
2023-05-05T02:33:01.828Z,101559.80
2023-05-05T02:35:38.564Z,101559.20
2023-05-05T02:38:13.932Z,101562.80
2023-05-05T02:40:45.023Z,101558.60
2023-05-05T02:43:22.392Z,101557.60
2023-05-05T02:45:51.045Z,101558.20
2023-05-05T02:48:20.439Z,101557.60
2023-05-05T02:50:49.648Z,101559.20
2023-05-05T02:53:27.448Z,101555.00
2023-05-05T02:56:24.973Z,101557.80
2023-05-05T02:59:15.351Z,101551.60
2023-05-05T03:02:10.090Z,101557.00
2023-05-05T03:04:49.509Z,101549.60
2023-05-05T03:07:43.093Z,101552.40
2023-05-05T03:10:21.617Z,101553.00
2023-05-05T03:12:57.314Z,101551.00
2023-05-05T03:15:51.906Z,101555.20
2023-05-05T03:18:25.482Z,101552.60
2023-05-05T03:21:08.800Z,101559.20
2023-05-05T03:23:39.749Z,101560.80
2023-05-05T03:26:12.458Z,101560.80
2023-05-05T03:28:43.759Z,101559.20
2023-05-05T03:31:19.140Z,101558.40
2023-05-05T03:33:51.174Z,101568.40
2023-05-05T03:36:21.189Z,101568.60
2023-05-05T03:38:50.084Z,101564.80
2023-05-05T03:41:20.052Z,101565.60
2023-05-05T03:43:48.581Z,101565.40
2023-05-05T03:46:17.811Z,101571.00
2023-05-05T03:48:46.569Z,101572.00
2023-05-05T03:51:15.876Z,101570.40
2023-05-05T03:53:44.668Z,101569.20
2023-05-05T03:56:13.454Z,101569.00
2023-05-05T03:58:42.546Z,101575.00
2023-05-05T04:01:11.236Z,101566.20
2023-05-05T04:03:39.969Z,101563.60
2023-05-05T04:06:08.714Z,101570.20
2023-05-05T04:08:37.919Z,101568.40
2023-05-05T04:11:07.278Z,101571.00
2023-05-05T04:13:36.114Z,101574.80
2023-05-05T04:16:05.819Z,101578.60
2023-05-05T04:18:34.575Z,101575.60
2023-05-05T04:21:03.715Z,101576.20
2023-05-05T04:23:33.003Z,101577.60
2023-05-05T04:26:02.520Z,101590.40
2023-05-05T04:28:31.297Z,101590.00
2023-05-05T04:31:01.463Z,101588.80
2023-05-05T04:33:31.746Z,101589.20
2023-05-05T04:36:00.738Z,101585.60
2023-05-05T04:38:29.679Z,101586.80
2023-05-05T04:41:00.259Z,101587.20
2023-05-05T04:43:29.069Z,101590.60
2023-05-05T04:45:58.092Z,101592.00
2023-05-05T04:48:29.719Z,101597.40
2023-05-05T04:50:58.501Z,101598.20
2023-05-05T04:53:27.285Z,101597.00
2023-05-05T04:55:56.273Z,101594.60
2023-05-05T04:58:24.866Z,101594.80
2023-05-05T05:00:53.648Z,101597.00
2023-05-05T05:03:22.425Z,101591.80
2023-05-05T05:05:51.359Z,101588.20
2023-05-05T05:08:20.237Z,101590.00
2023-05-05T05:10:49.150Z,101583.20
2023-05-05T05:13:18.886Z,101580.20
2023-05-05T05:15:47.743Z,101587.60
2023-05-05T05:18:17.027Z,101583.60
2023-05-05T05:20:46.626Z,101581.80
2023-05-05T05:23:15.929Z,101581.00
2023-05-05T05:25:46.558Z,101582.60
2023-05-05T05:28:15.855Z,101579.80
2023-05-05T05:30:48.848Z,101584.00
2023-05-05T05:33:17.635Z,101582.00
2023-05-05T05:35:46.631Z,101586.00
2023-05-05T05:38:15.724Z,101589.40
2023-05-05T05:40:44.427Z,101589.20
2023-05-05T05:43:13.402Z,101593.20
2023-05-05T05:45:42.218Z,101589.40
2023-05-05T05:48:11.643Z,101586.60
2023-05-05T05:50:40.691Z,101583.00
2023-05-05T05:53:09.380Z,101581.60
2023-05-05T05:55:38.065Z,101582.40
2023-05-05T05:58:06.753Z,101580.60
2023-05-05T06:00:35.437Z,101580.40
2023-05-05T06:03:05.640Z,101584.20
2023-05-05T06:05:36.706Z,101575.20
2023-05-05T06:08:05.593Z,101569.60
2023-05-05T06:10:36.164Z,101566.00
2023-05-05T06:13:08.407Z,101570.60
2023-05-05T06:15:38.141Z,101572.00
2023-05-05T06:18:07.532Z,101580.60
2023-05-05T06:20:39.575Z,101588.00
2023-05-05T06:23:08.259Z,101582.40
2023-05-05T06:25:39.514Z,101585.80
2023-05-05T06:28:08.092Z,101579.00
2023-05-05T06:30:36.677Z,101576.00
2023-05-05T06:33:05.315Z,101572.60
2023-05-05T06:35:34.157Z,101564.80
2023-05-05T06:38:02.842Z,101558.40
2023-05-05T06:40:32.125Z,101552.00
2023-05-05T06:43:00.732Z,101558.20
2023-05-05T06:45:33.614Z,101556.00
2023-05-05T06:48:02.393Z,101562.00
2023-05-05T06:50:31.085Z,101565.20
2023-05-05T06:52:59.884Z,101565.60
2023-05-05T06:55:28.562Z,101571.60
2023-05-05T06:57:57.048Z,101565.80
2023-05-05T07:00:25.942Z,101572.20
2023-05-05T07:02:54.592Z,101578.80
2023-05-05T07:05:26.291Z,101575.20
2023-05-05T07:07:57.070Z,101573.20
2023-05-05T07:10:26.528Z,101581.80
2023-05-05T07:12:55.670Z,101586.20
2023-05-05T07:15:29.086Z,101590.20
2023-05-05T07:17:58.519Z,101586.60
2023-05-05T07:20:27.420Z,101587.40
2023-05-05T07:22:56.102Z,101586.20
2023-05-05T07:25:24.693Z,101575.60
2023-05-05T07:27:53.588Z,101575.20
2023-05-05T07:30:22.541Z,101556.60
2023-05-05T07:32:52.115Z,101551.20
2023-05-05T07:35:21.618Z,101551.20
2023-05-05T07:37:50.375Z,101542.00
2023-05-05T07:40:19.062Z,101538.00
2023-05-05T07:42:47.766Z,101533.00
2023-05-05T07:45:16.535Z,101524.80
2023-05-05T07:47:45.354Z,101525.80
2023-05-05T07:50:14.018Z,101520.20
2023-05-05T07:52:48.311Z,101526.60
2023-05-05T07:55:21.026Z,101524.80
2023-05-05T07:57:50.026Z,101523.20
2023-05-05T08:00:19.775Z,101521.20
2023-05-05T08:02:48.820Z,101514.20
2023-05-05T08:05:18.029Z,101510.00
2023-05-05T08:07:46.701Z,101517.00
2023-05-05T08:10:15.179Z,101522.60
2023-05-05T08:12:44.086Z,101525.00
2023-05-05T08:15:13.166Z,101528.80
2023-05-05T08:17:50.998Z,101527.60
2023-05-05T08:20:21.325Z,101531.60
2023-05-05T08:22:50.289Z,101534.00
2023-05-05T08:25:19.187Z,101535.80
2023-05-05T08:27:47.767Z,101534.40
2023-05-05T08:30:19.732Z,101535.40
2023-05-05T08:32:48.460Z,101535.40
2023-05-05T08:35:17.060Z,101543.00
2023-05-05T08:37:45.689Z,101542.60
2023-05-05T08:40:15.095Z,101550.80
2023-05-05T08:42:46.986Z,101536.00
2023-05-05T08:45:16.284Z,101546.00
2023-05-05T08:47:46.537Z,101546.60
2023-05-05T08:50:17.721Z,101559.80
2023-05-05T08:52:54.103Z,101556.00
2023-05-05T08:55:26.695Z,101555.20
2023-05-05T08:58:03.070Z,101561.00
2023-05-05T09:00:31.903Z,101567.00
2023-05-05T09:03:01.967Z,101562.60
2023-05-05T09:05:30.936Z,101562.60
2023-05-05T09:07:59.529Z,101561.80
2023-05-05T09:10:29.394Z,101569.40
2023-05-05T09:12:58.193Z,101564.60
2023-05-05T09:15:28.656Z,101562.60
2023-05-05T09:18:01.275Z,101557.60
2023-05-05T09:20:38.660Z,101566.60
2023-05-05T09:23:19.417Z,101568.60
2023-05-05T09:26:04.685Z,101558.60
2023-05-05T09:28:33.429Z,101559.40
2023-05-05T09:31:16.428Z,101567.60
2023-05-05T09:33:46.394Z,101558.40
2023-05-05T09:36:15.349Z,101558.40
2023-05-05T09:39:04.945Z,101543.80
2023-05-05T09:41:44.535Z,101546.00
2023-05-05T09:44:16.907Z,101538.00
2023-05-05T09:46:55.523Z,101544.80
2023-05-05T09:49:25.711Z,101536.60
2023-05-05T09:51:55.389Z,101546.80
2023-05-05T09:54:30.206Z,101555.80
2023-05-05T09:56:58.646Z,101550.00
2023-05-05T09:59:27.435Z,101550.80
2023-05-05T10:02:11.292Z,101551.00
2023-05-05T10:04:40.484Z,101554.20
2023-05-05T10:07:09.073Z,101555.60
2023-05-05T10:09:37.746Z,101564.40
2023-05-05T10:12:07.046Z,101548.00
2023-05-05T10:14:36.353Z,101545.20
2023-05-05T10:17:06.495Z,101540.80
2023-05-05T10:19:37.574Z,101540.60
2023-05-05T10:22:10.069Z,101543.80
2023-05-05T10:24:43.250Z,101538.20
2023-05-05T10:27:20.781Z,101530.40
2023-05-05T10:30:13.361Z,101532.40
2023-05-05T10:33:00.541Z,101531.80
2023-05-05T10:35:40.092Z,101530.40
2023-05-05T10:38:13.252Z,101523.60
2023-05-05T10:40:46.230Z,101526.60
2023-05-05T10:43:16.005Z,101526.00
2023-05-05T10:45:45.357Z,101524.40
2023-05-05T10:48:25.178Z,101517.00
2023-05-05T10:51:31.074Z,101513.00
2023-05-05T10:54:22.027Z,101523.40
2023-05-05T10:56:51.977Z,101526.40
2023-05-05T10:59:40.214Z,101527.40
2023-05-05T11:02:31.946Z,101518.80
2023-05-05T11:05:03.956Z,101519.40
2023-05-05T11:07:34.076Z,101518.60
2023-05-05T11:10:06.545Z,101511.40
2023-05-05T11:13:02.670Z,101508.80
2023-05-05T11:15:31.714Z,101504.40
2023-05-05T11:18:08.266Z,101507.40
2023-05-05T11:20:38.055Z,101506.20
2023-05-05T11:23:22.312Z,101514.00
2023-05-05T11:25:52.027Z,101509.00
2023-05-05T11:28:31.803Z,101504.20
2023-05-05T11:31:03.131Z,101500.60
2023-05-05T11:33:37.953Z,101501.60
2023-05-05T11:36:12.708Z,101502.60
2023-05-05T11:39:03.069Z,101492.60
2023-05-05T11:41:34.842Z,101487.40
2023-05-05T11:44:10.888Z,101490.20
2023-05-05T11:46:42.039Z,101492.20
2023-05-05T11:49:10.722Z,101491.40
2023-05-05T11:51:40.121Z,101490.00
2023-05-05T11:54:08.808Z,101489.20
2023-05-05T11:56:54.087Z,101491.20
2023-05-05T11:59:23.606Z,101496.80
2023-05-05T12:01:52.891Z,101478.80
2023-05-05T12:04:21.514Z,101481.20
2023-05-05T12:06:50.598Z,101481.80
2023-05-05T12:09:23.361Z,101477.40
2023-05-05T12:11:56.958Z,101483.80
2023-05-05T12:14:26.477Z,101482.40
2023-05-05T12:17:08.610Z,101485.40
2023-05-05T12:19:45.545Z,101481.40
2023-05-05T12:22:23.682Z,101471.40
2023-05-05T12:25:08.141Z,101473.00
2023-05-05T12:27:36.920Z,101474.20
2023-05-05T12:30:15.745Z,101474.20
2023-05-05T12:32:45.799Z,101465.40
2023-05-05T12:35:14.961Z,101477.40
2023-05-05T12:37:44.045Z,101474.80
2023-05-05T12:40:52.077Z,101468.80
2023-05-05T12:43:33.477Z,101469.80
2023-05-05T12:46:13.221Z,101456.20
2023-05-05T12:48:48.420Z,101463.00
2023-05-05T12:51:18.696Z,101458.20
2023-05-05T12:53:50.003Z,101461.20
2023-05-05T12:56:41.012Z,101456.40
2023-05-05T12:59:31.019Z,101455.80
2023-05-05T13:02:03.713Z,101457.60
2023-05-05T13:04:32.971Z,101453.00
2023-05-05T13:07:15.958Z,101451.40
2023-05-05T13:09:44.994Z,101458.60
2023-05-05T13:12:15.150Z,101445.00
2023-05-05T13:14:44.007Z,101452.80
2023-05-05T13:17:13.854Z,101437.40
2023-05-05T13:19:46.544Z,101428.40
2023-05-05T13:22:15.488Z,101435.20
2023-05-05T13:24:51.905Z,101429.60
2023-05-05T13:27:21.416Z,101427.00
2023-05-05T13:29:50.489Z,101430.00
2023-05-05T13:32:19.144Z,101431.00
2023-05-05T13:34:47.837Z,101423.00
2023-05-05T13:37:16.726Z,101422.80
2023-05-05T13:39:45.619Z,101419.40
2023-05-05T13:42:14.309Z,101421.80
2023-05-05T13:44:43.095Z,101426.60
2023-05-05T13:47:11.937Z,101423.00
2023-05-05T13:49:40.877Z,101420.80
2023-05-05T13:52:09.894Z,101424.40
2023-05-05T13:54:38.661Z,101414.60
2023-05-05T13:57:08.257Z,101414.60
2023-05-05T13:59:36.956Z,101405.80
2023-05-05T14:02:06.464Z,101411.80
2023-05-05T14:04:35.217Z,101407.20
2023-05-05T14:07:05.181Z,101401.40
2023-05-05T14:09:33.748Z,101401.80
2023-05-05T14:12:02.637Z,101399.20
2023-05-05T14:14:31.373Z,101400.00
2023-05-05T14:17:00.124Z,101406.60
2023-05-05T14:19:29.178Z,101405.20
2023-05-05T14:21:58.212Z,101399.80
2023-05-05T14:24:27.003Z,101411.60
2023-05-05T14:26:55.480Z,101409.00
2023-05-05T14:29:24.283Z,101410.20
2023-05-05T14:31:53.018Z,101408.60
2023-05-05T14:34:22.469Z,101411.60
2023-05-05T14:36:51.155Z,101408.20
2023-05-05T14:39:20.151Z,101400.20
2023-05-05T14:41:48.725Z,101401.00
2023-05-05T14:44:17.412Z,101394.60
2023-05-05T14:46:46.851Z,101397.60
2023-05-05T14:49:16.633Z,101394.80
2023-05-05T14:51:45.321Z,101395.20
2023-05-05T14:54:26.978Z,101396.60
2023-05-05T14:56:57.029Z,101387.20
2023-05-05T14:59:26.640Z,101393.60
2023-05-05T15:01:56.708Z,101380.20
2023-05-05T15:04:25.755Z,101377.00
2023-05-05T15:06:54.237Z,101378.60
2023-05-05T15:09:22.916Z,101378.20
2023-05-05T15:11:51.508Z,101372.80
2023-05-05T15:14:20.239Z,101366.60
2023-05-05T15:16:48.902Z,101367.80
2023-05-05T15:19:17.769Z,101362.40
2023-05-05T15:21:53.313Z,101366.20
2023-05-05T15:24:22.671Z,101362.40
2023-05-05T15:26:51.510Z,101359.60
2023-05-05T15:29:20.090Z,101356.00
2023-05-05T15:31:48.720Z,101355.40
2023-05-05T15:34:17.572Z,101347.60
2023-05-05T15:36:49.118Z,101347.00
2023-05-05T15:39:17.805Z,101346.00
2023-05-05T15:41:46.399Z,101348.60
2023-05-05T15:44:14.995Z,101338.40
2023-05-05T15:46:43.723Z,101347.60
2023-05-05T15:49:12.561Z,101335.80
2023-05-05T15:51:42.063Z,101337.80
2023-05-05T15:54:10.746Z,101331.00
2023-05-05T15:56:39.435Z,101330.80
2023-05-05T15:59:08.025Z,101338.00
2023-05-05T16:01:37.145Z,101327.20
2023-05-05T16:04:05.820Z,101335.00
2023-05-05T16:06:34.497Z,101329.80
2023-05-05T16:09:04.106Z,101329.00
2023-05-05T16:11:32.784Z,101327.20
2023-05-05T16:14:01.292Z,101331.20
2023-05-05T16:16:33.183Z,101332.80
2023-05-05T16:19:01.918Z,101331.00
2023-05-05T16:21:31.320Z,101336.80
2023-05-05T16:23:59.906Z,101328.80
2023-05-05T16:26:28.676Z,101332.00
2023-05-05T16:28:57.588Z,101327.80
2023-05-05T16:31:26.505Z,101335.20
2023-05-05T16:33:55.159Z,101334.00
2023-05-05T16:36:24.669Z,101326.60
2023-05-05T16:38:53.254Z,101335.80
2023-05-05T16:41:26.289Z,101340.20
2023-05-05T16:43:55.042Z,101336.00
2023-05-05T16:46:23.751Z,101333.40
2023-05-05T16:48:52.612Z,101341.20
2023-05-05T16:51:21.293Z,101337.20
2023-05-05T16:53:50.391Z,101341.00
2023-05-05T16:56:18.885Z,101344.60
2023-05-05T16:58:47.744Z,101343.20
2023-05-05T17:01:16.576Z,101339.60
2023-05-05T17:03:45.142Z,101342.60
2023-05-05T17:06:13.731Z,101337.80
2023-05-05T17:08:42.345Z,101348.80
2023-05-05T17:11:11.924Z,101346.00
2023-05-05T17:13:41.137Z,101352.00
2023-05-05T17:16:09.740Z,101353.00
2023-05-05T17:18:38.487Z,101354.60
2023-05-05T17:21:07.174Z,101355.40
2023-05-05T17:23:35.862Z,101361.00
2023-05-05T17:26:05.571Z,101360.20
2023-05-05T17:28:34.164Z,101366.80
2023-05-05T17:31:02.947Z,101366.80
2023-05-05T17:33:31.637Z,101360.60
2023-05-05T17:36:00.322Z,101364.40
2023-05-05T17:38:29.110Z,101374.20
2023-05-05T17:40:57.900Z,101373.80
2023-05-05T17:43:26.693Z,101369.60
2023-05-05T17:45:55.458Z,101370.20
2023-05-05T17:48:24.309Z,101375.80
2023-05-05T17:50:53.377Z,101373.00
2023-05-05T17:53:22.669Z,101377.80
2023-05-05T17:55:51.560Z,101371.00
2023-05-05T17:58:20.344Z,101372.80
2023-05-05T18:00:49.235Z,101376.20
2023-05-05T18:03:18.069Z,101369.60
2023-05-05T18:05:46.924Z,101371.20
2023-05-05T18:08:15.504Z,101371.60
2023-05-05T18:10:44.400Z,101374.60
2023-05-05T18:13:13.207Z,101374.40
2023-05-05T18:15:41.940Z,101373.80
2023-05-05T18:18:10.983Z,101377.20
2023-05-05T18:20:39.876Z,101379.80
2023-05-05T18:23:08.769Z,101383.20
2023-05-05T18:25:37.348Z,101387.60
2023-05-05T18:28:06.332Z,101390.80
2023-05-05T18:30:36.246Z,101383.00
2023-05-05T18:33:05.298Z,101385.40
2023-05-05T18:35:34.046Z,101385.80
2023-05-05T18:38:03.663Z,101398.60
2023-05-05T18:40:32.235Z,101407.60
2023-05-05T18:43:00.914Z,101398.40
2023-05-05T18:45:29.632Z,101403.60
2023-05-05T18:47:58.472Z,101402.20
2023-05-05T18:50:27.496Z,101401.00
2023-05-05T18:52:56.268Z,101407.40
2023-05-05T18:55:24.977Z,101403.80
2023-05-05T18:57:53.752Z,101418.80
2023-05-05T19:00:22.641Z,101416.80
2023-05-05T19:02:51.764Z,101419.40
2023-05-05T19:05:20.636Z,101420.80
2023-05-05T19:07:49.624Z,101414.40
2023-05-05T19:10:18.314Z,101413.00
2023-05-05T19:12:47.272Z,101411.20
2023-05-05T19:15:16.302Z,101420.40
2023-05-05T19:17:45.045Z,101417.60
2023-05-05T19:20:13.880Z,101413.00
2023-05-05T19:22:42.762Z,101413.00
2023-05-05T19:25:14.500Z,101415.00
2023-05-05T19:27:43.638Z,101412.20
2023-05-05T19:30:13.229Z,101411.20
2023-05-05T19:32:41.856Z,101411.00
2023-05-05T19:35:12.022Z,101421.80
2023-05-05T19:37:41.233Z,101420.40
2023-05-05T19:40:10.994Z,101421.60
2023-05-05T19:42:40.147Z,101419.80
2023-05-05T19:45:09.235Z,101417.20
2023-05-05T19:47:38.074Z,101429.60
2023-05-05T19:50:08.086Z,101426.60
2023-05-05T19:52:38.596Z,101417.20
2023-05-05T19:55:10.649Z,101413.80
2023-05-05T19:57:40.799Z,101418.20
2023-05-05T20:00:11.219Z,101417.60
2023-05-05T20:02:40.086Z,101418.40
2023-05-05T20:05:11.702Z,101411.80
2023-05-05T20:07:42.235Z,101418.60
2023-05-05T20:10:13.635Z,101420.20
2023-05-05T20:12:48.357Z,101412.80
2023-05-05T20:15:22.293Z,101405.80
2023-05-05T20:17:50.970Z,101413.00
2023-05-05T20:20:22.837Z,101410.60
2023-05-05T20:22:51.395Z,101409.80
2023-05-05T20:25:20.177Z,101412.80
2023-05-05T20:27:48.762Z,101403.40
2023-05-05T20:30:17.359Z,101398.80
2023-05-05T20:32:46.282Z,101403.20
2023-05-05T20:35:15.231Z,101407.20
2023-05-05T20:37:45.365Z,101402.00
2023-05-05T20:40:14.455Z,101397.20
2023-05-05T20:42:43.141Z,101394.40
2023-05-05T20:45:12.458Z,101390.80
2023-05-05T20:47:41.393Z,101399.80
2023-05-05T20:50:11.919Z,101397.00
2023-05-05T20:52:40.966Z,101392.60
2023-05-05T20:55:10.161Z,101393.40
2023-05-05T20:57:39.048Z,101398.80
2023-05-05T21:00:09.389Z,101394.00
2023-05-05T21:02:38.385Z,101392.60
2023-05-05T21:05:08.294Z,101384.40
2023-05-05T21:07:36.880Z,101384.80
2023-05-05T21:10:06.978Z,101387.40
2023-05-05T21:12:35.831Z,101384.80
2023-05-05T21:15:05.848Z,101381.60
2023-05-05T21:17:34.855Z,101377.60
2023-05-05T21:20:03.896Z,101374.00
2023-05-05T21:22:32.581Z,101370.80
2023-05-05T21:25:19.881Z,101368.60
2023-05-05T21:27:49.283Z,101364.80
2023-05-05T21:30:18.296Z,101360.60
2023-05-05T21:32:47.308Z,101373.20
2023-05-05T21:35:16.095Z,101370.60
2023-05-05T21:37:45.178Z,101369.20
2023-05-05T21:40:16.360Z,101365.60
2023-05-05T21:42:44.902Z,101376.60
2023-05-05T21:45:13.696Z,101367.00
2023-05-05T21:47:42.474Z,101366.80
2023-05-05T21:50:12.684Z,101368.00
2023-05-05T21:52:41.698Z,101365.80
2023-05-05T21:55:11.304Z,101360.40
2023-05-05T21:57:39.918Z,101357.00
2023-05-05T22:00:10.133Z,101355.80
2023-05-05T22:02:41.526Z,101347.60
2023-05-05T22:05:10.871Z,101340.20
2023-05-05T22:07:39.766Z,101338.20
2023-05-05T22:10:09.675Z,101339.60
2023-05-05T22:12:38.604Z,101341.20
2023-05-05T22:15:08.969Z,101347.00
2023-05-05T22:17:37.777Z,101353.60
2023-05-05T22:20:09.409Z,101352.80
2023-05-05T22:22:38.332Z,101346.60
2023-05-05T22:25:08.051Z,101347.80
2023-05-05T22:27:36.834Z,101349.80
2023-05-05T22:30:06.631Z,101341.00
2023-05-05T22:32:35.370Z,101338.80
2023-05-05T22:35:05.406Z,101347.80
2023-05-05T22:37:34.037Z,101337.00
2023-05-05T22:40:02.927Z,101343.80
2023-05-05T22:42:31.517Z,101344.40
2023-05-05T22:45:00.156Z,101342.80
2023-05-05T22:47:28.920Z,101341.60
2023-05-05T22:49:58.185Z,101345.40
2023-05-05T22:52:28.718Z,101340.00
2023-05-05T22:54:57.323Z,101341.00
2023-05-05T22:57:26.495Z,101345.00
2023-05-05T22:59:55.204Z,101333.20
2023-05-05T23:02:24.227Z,101328.40
2023-05-05T23:04:53.067Z,101328.40
2023-05-05T23:07:21.677Z,101325.20
2023-05-05T23:09:50.343Z,101329.20
2023-05-05T23:12:19.233Z,101326.80
2023-05-05T23:14:48.747Z,101322.20
2023-05-05T23:17:17.223Z,101322.20
2023-05-05T23:19:48.805Z,101316.40
2023-05-05T23:22:17.373Z,101324.80
2023-05-05T23:24:46.049Z,101313.60
2023-05-05T23:27:14.838Z,101313.20
2023-05-05T23:29:43.322Z,101324.20
2023-05-05T23:32:11.906Z,101327.60
2023-05-05T23:34:40.489Z,101327.00
2023-05-05T23:37:09.176Z,101329.80
2023-05-05T23:39:37.884Z,101325.20
2023-05-05T23:42:06.658Z,101321.20
2023-05-05T23:44:35.243Z,101321.80
2023-05-05T23:47:03.822Z,101319.20
2023-05-05T23:49:32.515Z,101315.80
2023-05-05T23:52:01.198Z,101315.00
2023-05-05T23:54:29.781Z,101309.40
2023-05-05T23:57:00.511Z,101310.80
2023-05-05T23:59:29.125Z,101311.20
